sensor_id;sensor_type;location;lat;lon;timestamp;temperature;humidity
12926;DHT22;6529;50.566;9.774;2023-04-01T00:02:17;8.60;99.90
12926;DHT22;6529;50.566;9.774;2023-04-01T00:04:42;8.60;99.90
12926;DHT22;6529;50.566;9.774;2023-04-01T00:07:08;8.60;99.90
12926;DHT22;6529;50.566;9.774;2023-04-01T00:09:34;8.60;99.90
12926;DHT22;6529;50.566;9.774;2023-04-01T00:12:00;8.60;99.90
12926;DHT22;6529;50.566;9.774;2023-04-01T00:14:26;8.60;99.90
12926;DHT22;6529;50.566;9.774;2023-04-01T00:16:52;8.60;99.90
12926;DHT22;6529;50.566;9.774;2023-04-01T00:19:18;8.50;99.90
12926;DHT22;6529;50.566;9.774;2023-04-01T00:21:43;8.50;99.90
12926;DHT22;6529;50.566;9.774;2023-04-01T00:24:09;8.60;99.90
12926;DHT22;6529;50.566;9.774;2023-04-01T00:26:36;8.60;99.90
12926;DHT22;6529;50.566;9.774;2023-04-01T00:29:01;8.60;99.90
12926;DHT22;6529;50.566;9.774;2023-04-01T00:31:27;8.60;99.90
12926;DHT22;6529;50.566;9.774;2023-04-01T00:33:53;8.60;99.90
12926;DHT22;6529;50.566;9.774;2023-04-01T00:36:20;8.50;99.90
12926;DHT22;6529;50.566;9.774;2023-04-01T00:38:49;8.50;99.90
12926;DHT22;6529;50.566;9.774;2023-04-01T00:41:16;8.50;99.90
12926;DHT22;6529;50.566;9.774;2023-04-01T00:43:47;8.50;99.90
12926;DHT22;6529;50.566;9.774;2023-04-01T00:46:14;8.50;99.90
12926;DHT22;6529;50.566;9.774;2023-04-01T00:48:43;8.50;99.90
12926;DHT22;6529;50.566;9.774;2023-04-01T00:51:13;8.40;99.90
12926;DHT22;6529;50.566;9.774;2023-04-01T00:53:42;8.40;99.90
12926;DHT22;6529;50.566;9.774;2023-04-01T00:56:14;8.40;99.90
12926;DHT22;6529;50.566;9.774;2023-04-01T00:58:44;8.40;99.90
12926;DHT22;6529;50.566;9.774;2023-04-01T01:01:11;8.50;99.90
12926;DHT22;6529;50.566;9.774;2023-04-01T01:03:37;8.40;99.90
12926;DHT22;6529;50.566;9.774;2023-04-01T01:09:12;8.40;99.90
12926;DHT22;6529;50.566;9.774;2023-04-01T01:16:50;8.40;99.90
12926;DHT22;6529;50.566;9.774;2023-04-01T01:27:20;8.40;99.90
12926;DHT22;6529;50.566;9.774;2023-04-01T01:32:59;8.40;99.90
12926;DHT22;6529;50.566;9.774;2023-04-01T01:35:49;8.50;99.90
12926;DHT22;6529;50.566;9.774;2023-04-01T01:38:24;8.40;99.90
12926;DHT22;6529;50.566;9.774;2023-04-01T01:40:52;8.40;99.90
12926;DHT22;6529;50.566;9.774;2023-04-01T01:43:26;8.40;99.90
12926;DHT22;6529;50.566;9.774;2023-04-01T01:45:57;8.40;99.90
12926;DHT22;6529;50.566;9.774;2023-04-01T01:48:26;8.40;99.90
12926;DHT22;6529;50.566;9.774;2023-04-01T01:50:53;8.40;99.90
12926;DHT22;6529;50.566;9.774;2023-04-01T01:53:19;8.40;99.90
12926;DHT22;6529;50.566;9.774;2023-04-01T01:55:47;8.40;99.90
12926;DHT22;6529;50.566;9.774;2023-04-01T01:58:33;8.40;99.90
12926;DHT22;6529;50.566;9.774;2023-04-01T02:01:09;8.40;99.90
12926;DHT22;6529;50.566;9.774;2023-04-01T02:03:37;8.40;99.90
12926;DHT22;6529;50.566;9.774;2023-04-01T02:06:07;8.40;99.90
12926;DHT22;6529;50.566;9.774;2023-04-01T02:08:58;8.40;99.90
12926;DHT22;6529;50.566;9.774;2023-04-01T02:19:13;8.30;99.90
12926;DHT22;6529;50.566;9.774;2023-04-01T02:21:39;8.30;99.90
12926;DHT22;6529;50.566;9.774;2023-04-01T02:24:10;8.30;99.90
12926;DHT22;6529;50.566;9.774;2023-04-01T02:26:38;8.30;99.90
12926;DHT22;6529;50.566;9.774;2023-04-01T02:29:05;8.30;99.90
12926;DHT22;6529;50.566;9.774;2023-04-01T02:31:32;8.30;99.90
12926;DHT22;6529;50.566;9.774;2023-04-01T02:33:58;8.30;99.90
12926;DHT22;6529;50.566;9.774;2023-04-01T02:36:24;8.30;99.90
12926;DHT22;6529;50.566;9.774;2023-04-01T02:38:51;8.30;99.90
12926;DHT22;6529;50.566;9.774;2023-04-01T02:41:17;8.30;99.90
12926;DHT22;6529;50.566;9.774;2023-04-01T02:43:43;8.20;99.90
12926;DHT22;6529;50.566;9.774;2023-04-01T02:46:09;8.20;99.90
12926;DHT22;6529;50.566;9.774;2023-04-01T02:48:34;8.30;99.90
12926;DHT22;6529;50.566;9.774;2023-04-01T02:51:00;8.30;99.90
12926;DHT22;6529;50.566;9.774;2023-04-01T02:53:25;8.30;99.90
12926;DHT22;6529;50.566;9.774;2023-04-01T02:55:51;8.20;99.90
12926;DHT22;6529;50.566;9.774;2023-04-01T02:58:18;8.20;99.90
12926;DHT22;6529;50.566;9.774;2023-04-01T03:00:43;8.20;99.90
12926;DHT22;6529;50.566;9.774;2023-04-01T03:03:09;8.20;99.90
12926;DHT22;6529;50.566;9.774;2023-04-01T03:05:35;8.20;99.90
12926;DHT22;6529;50.566;9.774;2023-04-01T03:08:02;8.20;99.90
12926;DHT22;6529;50.566;9.774;2023-04-01T03:10:28;8.20;99.90
12926;DHT22;6529;50.566;9.774;2023-04-01T03:12:53;8.20;99.90
12926;DHT22;6529;50.566;9.774;2023-04-01T03:15:19;8.20;99.90
12926;DHT22;6529;50.566;9.774;2023-04-01T03:17:44;8.20;99.90
12926;DHT22;6529;50.566;9.774;2023-04-01T03:20:12;8.20;99.90
12926;DHT22;6529;50.566;9.774;2023-04-01T03:22:38;8.20;99.90
12926;DHT22;6529;50.566;9.774;2023-04-01T03:25:05;8.20;99.90
12926;DHT22;6529;50.566;9.774;2023-04-01T03:27:31;8.20;99.90
12926;DHT22;6529;50.566;9.774;2023-04-01T03:29:56;8.20;99.90
12926;DHT22;6529;50.566;9.774;2023-04-01T03:32:22;8.10;99.90
12926;DHT22;6529;50.566;9.774;2023-04-01T03:34:47;8.20;99.90
12926;DHT22;6529;50.566;9.774;2023-04-01T03:37:13;8.10;99.90
12926;DHT22;6529;50.566;9.774;2023-04-01T03:39:39;8.10;99.90
12926;DHT22;6529;50.566;9.774;2023-04-01T03:42:05;8.10;99.90
12926;DHT22;6529;50.566;9.774;2023-04-01T03:44:35;8.10;99.90
12926;DHT22;6529;50.566;9.774;2023-04-01T03:47:01;8.10;99.90
12926;DHT22;6529;50.566;9.774;2023-04-01T03:49:26;8.10;99.90
12926;DHT22;6529;50.566;9.774;2023-04-01T03:51:52;8.10;99.90
12926;DHT22;6529;50.566;9.774;2023-04-01T03:54:18;8.10;99.90
12926;DHT22;6529;50.566;9.774;2023-04-01T03:56:45;8.10;99.90
12926;DHT22;6529;50.566;9.774;2023-04-01T03:59:11;8.10;99.90
12926;DHT22;6529;50.566;9.774;2023-04-01T04:01:37;8.10;99.90
12926;DHT22;6529;50.566;9.774;2023-04-01T04:04:03;8.10;99.90
12926;DHT22;6529;50.566;9.774;2023-04-01T04:06:29;8.10;99.90
12926;DHT22;6529;50.566;9.774;2023-04-01T04:08:54;8.10;99.90
12926;DHT22;6529;50.566;9.774;2023-04-01T04:11:21;8.10;99.90
12926;DHT22;6529;50.566;9.774;2023-04-01T04:13:47;8.10;99.90
12926;DHT22;6529;50.566;9.774;2023-04-01T04:16:13;8.10;99.90
12926;DHT22;6529;50.566;9.774;2023-04-01T04:18:39;8.10;99.90
12926;DHT22;6529;50.566;9.774;2023-04-01T04:21:05;8.10;99.90
12926;DHT22;6529;50.566;9.774;2023-04-01T04:23:30;8.10;99.90
12926;DHT22;6529;50.566;9.774;2023-04-01T04:26:03;8.10;99.90
12926;DHT22;6529;50.566;9.774;2023-04-01T04:28:30;8.10;99.90
12926;DHT22;6529;50.566;9.774;2023-04-01T04:30:56;8.10;99.90
12926;DHT22;6529;50.566;9.774;2023-04-01T04:33:22;8.10;99.90
12926;DHT22;6529;50.566;9.774;2023-04-01T04:35:48;8.10;99.90
12926;DHT22;6529;50.566;9.774;2023-04-01T04:38:14;8.00;99.90
12926;DHT22;6529;50.566;9.774;2023-04-01T04:40:40;8.10;99.90
12926;DHT22;6529;50.566;9.774;2023-04-01T04:43:06;8.10;99.90
12926;DHT22;6529;50.566;9.774;2023-04-01T04:45:32;8.10;99.90
12926;DHT22;6529;50.566;9.774;2023-04-01T04:47:58;8.10;99.90
12926;DHT22;6529;50.566;9.774;2023-04-01T04:50:24;8.00;99.90
12926;DHT22;6529;50.566;9.774;2023-04-01T04:52:51;8.10;99.90
12926;DHT22;6529;50.566;9.774;2023-04-01T04:55:16;8.00;99.90
12926;DHT22;6529;50.566;9.774;2023-04-01T04:57:42;8.00;99.90
12926;DHT22;6529;50.566;9.774;2023-04-01T05:00:08;8.00;99.90
12926;DHT22;6529;50.566;9.774;2023-04-01T05:02:35;8.10;99.90
12926;DHT22;6529;50.566;9.774;2023-04-01T05:05:01;8.10;99.90
12926;DHT22;6529;50.566;9.774;2023-04-01T05:07:27;8.00;99.90
12926;DHT22;6529;50.566;9.774;2023-04-01T05:09:52;8.00;99.90
12926;DHT22;6529;50.566;9.774;2023-04-01T05:12:18;8.00;99.90
12926;DHT22;6529;50.566;9.774;2023-04-01T05:14:44;8.00;99.90
12926;DHT22;6529;50.566;9.774;2023-04-01T05:17:11;8.00;99.90
12926;DHT22;6529;50.566;9.774;2023-04-01T05:19:38;8.00;99.90
12926;DHT22;6529;50.566;9.774;2023-04-01T05:22:04;8.00;99.90
12926;DHT22;6529;50.566;9.774;2023-04-01T05:24:30;8.00;99.90
12926;DHT22;6529;50.566;9.774;2023-04-01T05:26:55;8.00;99.90
12926;DHT22;6529;50.566;9.774;2023-04-01T05:29:23;8.00;99.90
12926;DHT22;6529;50.566;9.774;2023-04-01T05:31:49;8.00;99.90
12926;DHT22;6529;50.566;9.774;2023-04-01T05:34:14;8.00;99.90
12926;DHT22;6529;50.566;9.774;2023-04-01T05:36:40;8.00;99.90
12926;DHT22;6529;50.566;9.774;2023-04-01T05:39:07;8.10;99.90
12926;DHT22;6529;50.566;9.774;2023-04-01T05:41:35;8.10;99.90
12926;DHT22;6529;50.566;9.774;2023-04-01T05:44:01;8.00;99.90
12926;DHT22;6529;50.566;9.774;2023-04-01T05:46:27;8.10;99.90
12926;DHT22;6529;50.566;9.774;2023-04-01T05:48:52;8.10;99.90
12926;DHT22;6529;50.566;9.774;2023-04-01T05:51:18;8.10;99.90
12926;DHT22;6529;50.566;9.774;2023-04-01T05:53:43;8.10;99.90
12926;DHT22;6529;50.566;9.774;2023-04-01T05:56:09;8.10;99.90
12926;DHT22;6529;50.566;9.774;2023-04-01T05:58:36;8.10;99.90
12926;DHT22;6529;50.566;9.774;2023-04-01T06:01:07;8.10;99.90
12926;DHT22;6529;50.566;9.774;2023-04-01T06:03:33;8.10;99.90
12926;DHT22;6529;50.566;9.774;2023-04-01T06:05:58;8.10;99.90
12926;DHT22;6529;50.566;9.774;2023-04-01T06:08:24;8.10;99.90
12926;DHT22;6529;50.566;9.774;2023-04-01T06:11:16;8.10;99.90
12926;DHT22;6529;50.566;9.774;2023-04-01T06:30:24;8.10;99.90
12926;DHT22;6529;50.566;9.774;2023-04-01T06:36:07;8.10;99.90
12926;DHT22;6529;50.566;9.774;2023-04-01T06:52:10;8.20;99.90
12926;DHT22;6529;50.566;9.774;2023-04-01T06:54:42;8.20;99.90
12926;DHT22;6529;50.566;9.774;2023-04-01T06:57:36;8.20;99.90
12926;DHT22;6529;50.566;9.774;2023-04-01T07:02:58;8.30;99.90
12926;DHT22;6529;50.566;9.774;2023-04-01T07:05:35;8.30;99.90
12926;DHT22;6529;50.566;9.774;2023-04-01T07:08:11;8.30;99.90
12926;DHT22;6529;50.566;9.774;2023-04-01T07:10:50;8.30;99.90
12926;DHT22;6529;50.566;9.774;2023-04-01T07:13:27;8.20;99.90
12926;DHT22;6529;50.566;9.774;2023-04-01T07:16:08;8.20;99.90
12926;DHT22;6529;50.566;9.774;2023-04-01T07:21:52;8.20;99.90
12926;DHT22;6529;50.566;9.774;2023-04-01T07:24:27;8.30;99.90
12926;DHT22;6529;50.566;9.774;2023-04-01T07:26:56;8.20;99.90
12926;DHT22;6529;50.566;9.774;2023-04-01T07:29:23;8.30;99.90
12926;DHT22;6529;50.566;9.774;2023-04-01T07:34:25;8.20;99.90
12926;DHT22;6529;50.566;9.774;2023-04-01T07:37:04;8.30;99.90
12926;DHT22;6529;50.566;9.774;2023-04-01T07:45:13;8.30;99.90
12926;DHT22;6529;50.566;9.774;2023-04-01T07:50:45;8.30;99.90
12926;DHT22;6529;50.566;9.774;2023-04-01T07:53:24;8.30;99.90
12926;DHT22;6529;50.566;9.774;2023-04-01T08:01:26;8.40;99.90
12926;DHT22;6529;50.566;9.774;2023-04-01T08:20:45;8.60;99.90
12926;DHT22;6529;50.566;9.774;2023-04-01T08:23:26;8.60;99.90
12926;DHT22;6529;50.566;9.774;2023-04-01T08:28:54;8.60;99.90
12926;DHT22;6529;50.566;9.774;2023-04-01T08:33:56;8.60;99.90
12926;DHT22;6529;50.566;9.774;2023-04-01T08:36:28;8.60;99.90
12926;DHT22;6529;50.566;9.774;2023-04-01T08:39:18;8.60;99.90
12926;DHT22;6529;50.566;9.774;2023-04-01T08:41:50;8.60;99.90
12926;DHT22;6529;50.566;9.774;2023-04-01T08:52:33;8.70;99.90
12926;DHT22;6529;50.566;9.774;2023-04-01T08:55:04;8.70;99.90
12926;DHT22;6529;50.566;9.774;2023-04-01T08:57:55;8.80;99.90
12926;DHT22;6529;50.566;9.774;2023-04-01T09:00:37;8.80;99.90
12926;DHT22;6529;50.566;9.774;2023-04-01T09:11:30;8.90;99.90
12926;DHT22;6529;50.566;9.774;2023-04-01T09:20:14;8.90;99.90
12926;DHT22;6529;50.566;9.774;2023-04-01T09:22:47;9.00;99.90
12926;DHT22;6529;50.566;9.774;2023-04-01T09:28:02;8.90;99.90
12926;DHT22;6529;50.566;9.774;2023-04-01T09:30:56;8.80;99.90
12926;DHT22;6529;50.566;9.774;2023-04-01T09:33:42;8.90;99.90
12926;DHT22;6529;50.566;9.774;2023-04-01T09:41:31;9.00;99.90
12926;DHT22;6529;50.566;9.774;2023-04-01T09:52:23;9.00;99.90
12926;DHT22;6529;50.566;9.774;2023-04-01T09:54:58;9.10;99.90
12926;DHT22;6529;50.566;9.774;2023-04-01T09:58:07;9.10;99.90
12926;DHT22;6529;50.566;9.774;2023-04-01T10:04:35;9.10;99.90
12926;DHT22;6529;50.566;9.774;2023-04-01T10:07:22;9.20;99.90
12926;DHT22;6529;50.566;9.774;2023-04-01T10:13:19;9.30;99.90
12926;DHT22;6529;50.566;9.774;2023-04-01T10:26:41;9.50;99.90
12926;DHT22;6529;50.566;9.774;2023-04-01T10:43:23;9.50;99.90
12926;DHT22;6529;50.566;9.774;2023-04-01T10:49:07;9.50;99.90
12926;DHT22;6529;50.566;9.774;2023-04-01T10:54:48;9.70;99.90
12926;DHT22;6529;50.566;9.774;2023-04-01T11:00:11;9.70;99.90
12926;DHT22;6529;50.566;9.774;2023-04-01T11:11:46;9.60;99.90
12926;DHT22;6529;50.566;9.774;2023-04-01T11:17:42;9.70;99.90
12926;DHT22;6529;50.566;9.774;2023-04-01T11:37:41;10.00;99.90
12926;DHT22;6529;50.566;9.774;2023-04-01T11:40:20;10.00;99.90
12926;DHT22;6529;50.566;9.774;2023-04-01T11:42:57;9.90;99.90
12926;DHT22;6529;50.566;9.774;2023-04-01T11:45:48;9.90;99.90
12926;DHT22;6529;50.566;9.774;2023-04-01T11:54:23;9.80;99.90
12926;DHT22;6529;50.566;9.774;2023-04-01T12:21:38;10.20;99.90
12926;DHT22;6529;50.566;9.774;2023-04-01T12:41:30;10.20;99.90
12926;DHT22;6529;50.566;9.774;2023-04-01T13:01:30;10.10;99.90
12926;DHT22;6529;50.566;9.774;2023-04-01T13:13:14;10.20;99.90
12926;DHT22;6529;50.566;9.774;2023-04-01T13:19:05;10.20;99.90
12926;DHT22;6529;50.566;9.774;2023-04-01T13:26:58;10.20;99.90
12926;DHT22;6529;50.566;9.774;2023-04-01T13:29:36;10.10;99.90
12926;DHT22;6529;50.566;9.774;2023-04-01T13:35:26;10.10;99.90
12926;DHT22;6529;50.566;9.774;2023-04-01T13:43:34;10.00;99.90
12926;DHT22;6529;50.566;9.774;2023-04-01T13:48:30;10.00;99.90
12926;DHT22;6529;50.566;9.774;2023-04-01T13:54:08;10.10;99.90
12926;DHT22;6529;50.566;9.774;2023-04-01T14:13:34;10.00;99.90
12926;DHT22;6529;50.566;9.774;2023-04-01T14:21:38;10.10;99.90
12926;DHT22;6529;50.566;9.774;2023-04-01T14:50:11;10.10;99.90
12926;DHT22;6529;50.566;9.774;2023-04-01T14:52:42;10.20;99.90
12926;DHT22;6529;50.566;9.774;2023-04-01T14:56:02;10.20;99.90
12926;DHT22;6529;50.566;9.774;2023-04-01T14:58:14;10.10;99.90
12926;DHT22;6529;50.566;9.774;2023-04-01T15:20:15;10.10;99.90
12926;DHT22;6529;50.566;9.774;2023-04-01T15:31:50;9.90;99.90
12926;DHT22;6529;50.566;9.774;2023-04-01T15:39:57;9.80;99.90
12926;DHT22;6529;50.566;9.774;2023-04-01T15:55:34;10.00;99.90
12926;DHT22;6529;50.566;9.774;2023-04-01T16:00:42;10.10;99.90
12926;DHT22;6529;50.566;9.774;2023-04-01T16:11:55;10.10;99.90
12926;DHT22;6529;50.566;9.774;2023-04-01T16:14:58;10.00;99.90
12926;DHT22;6529;50.566;9.774;2023-04-01T16:23:37;10.00;99.90
12926;DHT22;6529;50.566;9.774;2023-04-01T16:26:15;10.00;99.90
12926;DHT22;6529;50.566;9.774;2023-04-01T16:28:55;10.00;99.90
12926;DHT22;6529;50.566;9.774;2023-04-01T16:31:37;10.00;99.90
12926;DHT22;6529;50.566;9.774;2023-04-01T16:34:34;10.00;99.90
12926;DHT22;6529;50.566;9.774;2023-04-01T16:37:09;10.00;99.90
12926;DHT22;6529;50.566;9.774;2023-04-01T16:42:56;10.00;99.90
12926;DHT22;6529;50.566;9.774;2023-04-01T16:45:35;10.00;99.90
12926;DHT22;6529;50.566;9.774;2023-04-01T16:48:20;10.00;99.90
12926;DHT22;6529;50.566;9.774;2023-04-01T16:51:07;10.00;99.90
12926;DHT22;6529;50.566;9.774;2023-04-01T16:59:07;9.90;99.90
12926;DHT22;6529;50.566;9.774;2023-04-01T17:01:44;9.90;99.90
12926;DHT22;6529;50.566;9.774;2023-04-01T17:04:42;9.90;99.90
12926;DHT22;6529;50.566;9.774;2023-04-01T17:13:26;9.80;99.90
12926;DHT22;6529;50.566;9.774;2023-04-01T17:27:04;9.70;99.90
12926;DHT22;6529;50.566;9.774;2023-04-01T17:29:53;9.70;99.90
12926;DHT22;6529;50.566;9.774;2023-04-01T17:35:26;9.60;99.90
12926;DHT22;6529;50.566;9.774;2023-04-01T17:37:56;9.70;99.90
12926;DHT22;6529;50.566;9.774;2023-04-01T17:46:19;9.70;99.90
12926;DHT22;6529;50.566;9.774;2023-04-01T17:49:10;9.70;99.90
12926;DHT22;6529;50.566;9.774;2023-04-01T17:51:45;9.70;99.90
12926;DHT22;6529;50.566;9.774;2023-04-01T17:54:20;9.60;99.90
12926;DHT22;6529;50.566;9.774;2023-04-01T18:11:22;9.40;99.90
12926;DHT22;6529;50.566;9.774;2023-04-01T18:20:05;9.30;99.90
12926;DHT22;6529;50.566;9.774;2023-04-01T18:23:05;9.30;99.90
12926;DHT22;6529;50.566;9.774;2023-04-01T18:25:39;9.20;99.90
12926;DHT22;6529;50.566;9.774;2023-04-01T18:31:19;9.20;99.90
12926;DHT22;6529;50.566;9.774;2023-04-01T18:34:00;9.20;99.90
12926;DHT22;6529;50.566;9.774;2023-04-01T18:36:50;9.10;99.90
12926;DHT22;6529;50.566;9.774;2023-04-01T18:44:49;9.10;99.90
12926;DHT22;6529;50.566;9.774;2023-04-01T18:47:38;9.10;99.90
12926;DHT22;6529;50.566;9.774;2023-04-01T18:56:05;9.00;99.90
12926;DHT22;6529;50.566;9.774;2023-04-01T19:04:04;8.90;99.90
12926;DHT22;6529;50.566;9.774;2023-04-01T19:06:41;8.90;99.90
12926;DHT22;6529;50.566;9.774;2023-04-01T19:19:55;8.80;99.90
12926;DHT22;6529;50.566;9.774;2023-04-01T19:25:46;8.70;99.90
12926;DHT22;6529;50.566;9.774;2023-04-01T19:36:24;8.70;99.90
12926;DHT22;6529;50.566;9.774;2023-04-01T19:39:00;8.70;99.90
12926;DHT22;6529;50.566;9.774;2023-04-01T19:41:32;8.70;99.90
12926;DHT22;6529;50.566;9.774;2023-04-01T19:52:41;8.60;99.90
12926;DHT22;6529;50.566;9.774;2023-04-01T20:00:51;8.50;99.90
12926;DHT22;6529;50.566;9.774;2023-04-01T20:03:39;8.50;99.90
12926;DHT22;6529;50.566;9.774;2023-04-01T20:06:12;8.50;99.90
12926;DHT22;6529;50.566;9.774;2023-04-01T20:14:12;8.40;99.90
12926;DHT22;6529;50.566;9.774;2023-04-01T20:19:12;8.40;99.90
12926;DHT22;6529;50.566;9.774;2023-04-01T20:21:47;8.40;99.90
12926;DHT22;6529;50.566;9.774;2023-04-01T20:24:26;8.40;99.90
12926;DHT22;6529;50.566;9.774;2023-04-01T20:27:02;8.30;99.90
12926;DHT22;6529;50.566;9.774;2023-04-01T20:32:23;8.30;99.90
12926;DHT22;6529;50.566;9.774;2023-04-01T20:37:55;8.30;99.90
12926;DHT22;6529;50.566;9.774;2023-04-01T20:43:07;8.30;99.90
12926;DHT22;6529;50.566;9.774;2023-04-01T20:46:14;8.30;99.90
12926;DHT22;6529;50.566;9.774;2023-04-01T20:51:19;8.30;99.90
12926;DHT22;6529;50.566;9.774;2023-04-01T21:01:58;8.40;99.90
12926;DHT22;6529;50.566;9.774;2023-04-01T21:10:39;8.30;99.90
12926;DHT22;6529;50.566;9.774;2023-04-01T21:18:44;8.30;99.90
12926;DHT22;6529;50.566;9.774;2023-04-01T21:21:26;8.30;99.90
12926;DHT22;6529;50.566;9.774;2023-04-01T21:29:55;8.30;99.90
12926;DHT22;6529;50.566;9.774;2023-04-01T21:37:56;8.40;99.90
12926;DHT22;6529;50.566;9.774;2023-04-01T21:43:35;8.30;99.90
12926;DHT22;6529;50.566;9.774;2023-04-01T22:00:20;8.40;99.90
12926;DHT22;6529;50.566;9.774;2023-04-01T22:06:42;8.40;99.90
12926;DHT22;6529;50.566;9.774;2023-04-01T22:09:21;8.40;99.90
12926;DHT22;6529;50.566;9.774;2023-04-01T22:12:53;8.40;99.90
12926;DHT22;6529;50.566;9.774;2023-04-01T22:15:41;8.50;99.90
12926;DHT22;6529;50.566;9.774;2023-04-01T22:18:10;8.40;99.90
12926;DHT22;6529;50.566;9.774;2023-04-01T22:21:04;8.50;99.90
12926;DHT22;6529;50.566;9.774;2023-04-01T22:24:02;8.50;99.90
12926;DHT22;6529;50.566;9.774;2023-04-01T22:29:09;8.50;99.90
12926;DHT22;6529;50.566;9.774;2023-04-01T22:31:39;8.60;99.90
12926;DHT22;6529;50.566;9.774;2023-04-01T22:34:23;8.60;99.90
12926;DHT22;6529;50.566;9.774;2023-04-01T22:52:47;8.50;99.90
12926;DHT22;6529;50.566;9.774;2023-04-01T22:58:07;8.50;99.90
12926;DHT22;6529;50.566;9.774;2023-04-01T23:00:47;8.50;99.90
12926;DHT22;6529;50.566;9.774;2023-04-01T23:03:18;8.50;99.90
12926;DHT22;6529;50.566;9.774;2023-04-01T23:05:58;8.50;99.90
12926;DHT22;6529;50.566;9.774;2023-04-01T23:08:35;8.50;99.90
12926;DHT22;6529;50.566;9.774;2023-04-01T23:11:21;8.50;99.90
12926;DHT22;6529;50.566;9.774;2023-04-01T23:13:57;8.50;99.90
12926;DHT22;6529;50.566;9.774;2023-04-01T23:16:32;8.60;99.90
12926;DHT22;6529;50.566;9.774;2023-04-01T23:19:37;8.60;99.90
12926;DHT22;6529;50.566;9.774;2023-04-01T23:24:53;8.50;99.90
12926;DHT22;6529;50.566;9.774;2023-04-01T23:27:21;8.50;99.90
12926;DHT22;6529;50.566;9.774;2023-04-01T23:29:48;8.50;99.90
12926;DHT22;6529;50.566;9.774;2023-04-01T23:32:17;8.50;99.90
12926;DHT22;6529;50.566;9.774;2023-04-01T23:34:51;8.50;99.90
12926;DHT22;6529;50.566;9.774;2023-04-01T23:37:18;8.50;99.90
12926;DHT22;6529;50.566;9.774;2023-04-01T23:39:46;8.50;99.90
12926;DHT22;6529;50.566;9.774;2023-04-01T23:44:46;8.50;99.90
12926;DHT22;6529;50.566;9.774;2023-04-01T23:47:20;8.50;99.90
12926;DHT22;6529;50.566;9.774;2023-04-01T23:49:59;8.50;99.90
12926;DHT22;6529;50.566;9.774;2023-04-01T23:52:30;8.50;99.90
12926;DHT22;6529;50.566;9.774;2023-04-01T23:57:35;8.50;99.90
